Time;durP1;ratioP1;P1;durP2;ratioP2;P2;SDS_P1;SDS_P2;PMS_P1;PMS_P2;Temp;Humidity;BMP_temperature;BMP_pressure;BME280_temperature;BME280_humidity;BME280_pressure;Samples;Min_cycle;Max_cycle;Signal;HPM_P1;HPM_P2
2022/11/20 00:01:36;;;;;;;;;;;;;;;4.84;77.02;101203.72;4853411;29;5921;-78
2022/11/20 00:04:02;;;;;;;;;;;;;;;4.86;77.00;101209.75;4856949;29;5717;-79
2022/11/20 00:06:29;;;;;;;;;;;;;;;4.42;77.00;101130.00;4842377;29;5264;-78
2022/11/20 00:08:56;;;;;;;;;;;;;;;4.86;77.26;101204.41;4859067;29;5232;-79
2022/11/20 00:11:22;;;;;;;;;;;;;;;4.86;77.18;101205.25;4836281;29;5227;-79
2022/11/20 00:13:49;;;;;;;;;;;;;;;4.85;76.96;101203.56;4836436;29;5373;-79
2022/11/20 00:16:16;;;;;;;;;;;;;;;4.88;77.12;101205.06;4852246;29;5347;-79
2022/11/20 00:18:43;;;;;;;;;;;;;;;4.91;76.84;101204.72;4855153;29;5121;-78
2022/11/20 00:21:10;;;;;;;;;;;;;;;4.90;76.95;101200.41;4844707;29;5249;-79
2022/11/20 00:23:36;;;;;;;;;;;;;;;4.90;76.95;101201.22;4856654;29;5328;-79
2022/11/20 00:26:03;;;;;;;;;;;;;;;4.89;76.91;101201.41;4857685;29;5169;-79
2022/11/20 00:28:29;;;;;;;;;;;;;;;4.97;76.79;101199.56;4853230;29;5186;-79
2022/11/20 00:30:56;;;;;;;;;;;;;;;4.93;76.93;101184.88;4854620;29;5249;-78
2022/11/20 00:33:23;;;;;;;;;;;;;;;4.94;76.97;101189.22;4856921;29;5321;-79
2022/11/20 00:35:49;;;;;;;;;;;;;;;4.96;76.74;101189.03;4857066;29;5334;-79
2022/11/20 00:38:15;;;;;;;;;;;;;;;4.96;76.75;101186.38;4840635;29;5178;-78
2022/11/20 00:40:42;;;;;;;;;;;;;;;4.99;76.63;101194.88;4855120;29;5343;-79
2022/11/20 00:43:08;;;;;;;;;;;;;;;5.03;76.53;101197.22;4845350;29;5224;-78
2022/11/20 00:45:35;;;;;;;;;;;;;;;5.00;76.71;101198.41;4854545;29;5218;-80
2022/11/20 00:48:02;;;;;;;;;;;;;;;4.96;76.81;101189.88;4846844;29;5243;-78
2022/11/20 00:50:28;;;;;;;;;;;;;;;4.99;76.81;101191.38;4853467;29;5458;-78
2022/11/20 00:52:55;;;;;;;;;;;;;;;4.95;76.91;101190.06;4842679;29;5438;-77
2022/11/20 00:55:21;;;;;;;;;;;;;;;5.00;76.94;101187.72;4860978;29;5231;-79
2022/11/20 00:57:48;;;;;;;;;;;;;;;4.98;76.89;101184.38;4857756;29;5117;-79
2022/11/20 01:00:14;;;;;;;;;;;;;;;5.04;76.70;101180.22;4856970;29;5293;-79
2022/11/20 01:02:41;;;;;;;;;;;;;;;5.03;76.82;101183.84;4861743;29;5234;-79
2022/11/20 01:05:07;;;;;;;;;;;;;;;5.00;76.88;101183.22;4857403;29;5304;-79
2022/11/20 01:07:34;;;;;;;;;;;;;;;5.09;76.59;101181.38;4847476;29;5159;-79
2022/11/20 01:10:00;;;;;;;;;;;;;;;5.12;76.21;101181.03;4838645;29;5613;-80
2022/11/20 01:12:27;;;;;;;;;;;;;;;5.03;76.67;101182.06;4861519;29;5171;-79
2022/11/20 01:14:54;;;;;;;;;;;;;;;5.03;76.75;101181.19;4859444;29;5816;-79
2022/11/20 01:17:20;;;;;;;;;;;;;;;5.06;76.77;101181.72;4857918;29;6576;-79
2022/11/20 01:19:47;;;;;;;;;;;;;;;5.06;76.65;101176.38;4858729;29;5678;-79
2022/11/20 01:22:13;;;;;;;;;;;;;;;5.05;76.62;101165.84;4861987;29;5094;-79
2022/11/20 01:24:40;;;;;;;;;;;;;;;5.09;76.62;101164.50;4849088;29;5303;-79
2022/11/20 01:27:06;;;;;;;;;;;;;;;5.10;76.60;101171.53;4855451;29;5528;-78
2022/11/20 01:29:33;;;;;;;;;;;;;;;5.12;76.57;101166.84;4844141;29;5470;-78
2022/11/20 01:31:59;;;;;;;;;;;;;;;5.11;76.50;101159.81;4860140;29;5280;-77
2022/11/20 01:34:26;;;;;;;;;;;;;;;5.19;76.22;101163.31;4859398;29;5395;-77
2022/11/20 01:36:52;;;;;;;;;;;;;;;5.15;76.26;101162.00;4860310;29;5790;-77
2022/11/20 01:39:19;;;;;;;;;;;;;;;5.17;76.07;101159.97;4855343;29;5219;-80
2022/11/20 01:44:30;;;;;;;;;;;;;;;5.16;76.32;101152.97;4855962;29;5607;-79
2022/11/20 01:46:56;;;;;;;;;;;;;;;5.16;76.37;101154.81;4857227;29;5237;-79
2022/11/20 01:49:23;;;;;;;;;;;;;;;5.19;76.28;101146.47;4856330;29;5229;-79
2022/11/20 01:51:49;;;;;;;;;;;;;;;5.20;76.24;101151.63;4848661;29;5537;-79
2022/11/20 01:54:16;;;;;;;;;;;;;;;5.16;76.48;101149.47;4856087;29;5270;-79
2022/11/20 01:56:42;;;;;;;;;;;;;;;5.15;76.70;101145.16;4847879;29;5326;-79
2022/11/20 01:59:09;;;;;;;;;;;;;;;5.18;76.42;101144.81;4855618;29;5586;-79
2022/11/20 02:01:36;;;;;;;;;;;;;;;5.31;76.02;101142.44;4859092;29;5429;-79
2022/11/20 02:04:02;;;;;;;;;;;;;;;5.21;76.31;101141.81;4837543;29;5629;-78
2022/11/20 02:06:29;;;;;;;;;;;;;;;5.24;76.34;101147.63;4855046;29;5214;-80
2022/11/20 02:08:56;;;;;;;;;;;;;;;5.32;76.15;101141.41;4859815;29;5285;-79
2022/11/20 02:11:22;;;;;;;;;;;;;;;5.29;76.04;101135.59;4854038;29;5177;-78
2022/11/20 02:13:48;;;;;;;;;;;;;;;5.28;76.08;101136.59;4856499;29;5245;-78
2022/11/20 02:16:14;;;;;;;;;;;;;;;5.30;75.92;101131.94;4858819;29;5408;-80
2022/11/20 02:18:40;;;;;;;;;;;;;;;5.45;75.51;101131.03;4856994;29;5734;-79
2022/11/20 02:21:07;;;;;;;;;;;;;;;5.34;75.77;101126.06;4858895;29;5381;-79
2022/11/20 02:23:34;;;;;;;;;;;;;;;5.33;76.09;101126.25;4859693;29;5655;-79
2022/11/20 02:26:00;;;;;;;;;;;;;;;5.35;75.88;101121.53;4858981;29;5238;-79
2022/11/20 02:28:27;;;;;;;;;;;;;;;5.30;76.11;101116.75;4837181;29;5244;-79
2022/11/20 02:30:53;;;;;;;;;;;;;;;5.37;75.84;101117.72;4857783;29;6035;-79
2022/11/20 02:33:20;;;;;;;;;;;;;;;5.41;75.70;101121.72;4856052;29;5810;-79
2022/11/20 02:35:47;;;;;;;;;;;;;;;5.34;75.89;101114.56;4860557;29;5182;-79
2022/11/20 02:38:13;;;;;;;;;;;;;;;5.35;75.92;101102.84;4842693;29;5416;-79
2022/11/20 02:40:39;;;;;;;;;;;;;;;5.33;76.13;101110.22;4837422;29;5380;-79
2022/11/20 02:43:06;;;;;;;;;;;;;;;5.25;76.35;101103.06;4859142;29;5689;-79
2022/11/20 02:45:33;;;;;;;;;;;;;;;5.37;76.04;101101.69;4845410;29;5295;-80
2022/11/20 02:47:59;;;;;;;;;;;;;;;5.40;75.76;101101.34;4859531;29;5962;-80
2022/11/20 02:50:26;;;;;;;;;;;;;;;5.45;75.56;101103.50;4845831;29;5450;-79
2022/11/20 02:52:52;;;;;;;;;;;;;;;5.49;75.48;101106.66;4843826;29;5719;-77
2022/11/20 02:55:19;;;;;;;;;;;;;;;5.34;75.99;101102.03;4859304;29;5178;-77
2022/11/20 02:57:45;;;;;;;;;;;;;;;5.32;76.21;101101.34;4856399;29;5208;-78
2022/11/20 03:00:12;;;;;;;;;;;;;;;5.36;75.89;101094.69;4856990;29;5195;-79
2022/11/20 03:02:38;;;;;;;;;;;;;;;5.30;76.20;101089.19;4843174;29;5355;-79
2022/11/20 03:05:05;;;;;;;;;;;;;;;5.36;75.98;101085.84;4843861;29;5445;-79
2022/11/20 03:07:31;;;;;;;;;;;;;;;5.32;76.09;101088.00;4854150;29;5324;-79
2022/11/20 03:09:58;;;;;;;;;;;;;;;5.27;76.50;101095.72;4846733;29;5263;-79
2022/11/20 03:12:25;;;;;;;;;;;;;;;5.33;76.08;101089.69;4856250;29;5408;-79
2022/11/20 03:14:51;;;;;;;;;;;;;;;5.34;76.08;101083.31;4841267;29;5206;-77
2022/11/20 03:17:18;;;;;;;;;;;;;;;5.32;76.25;101085.31;4856965;29;5365;-78
2022/11/20 03:19:44;;;;;;;;;;;;;;;5.28;76.51;101077.84;4856044;29;5595;-78
2022/11/20 03:22:11;;;;;;;;;;;;;;;5.28;76.44;101077.84;4858374;29;5265;-79
2022/11/20 03:24:37;;;;;;;;;;;;;;;5.33;76.21;101083.50;4856773;29;5165;-79
2022/11/20 03:27:04;;;;;;;;;;;;;;;5.30;76.10;101074.00;4840006;29;5296;-79
2022/11/20 03:29:30;;;;;;;;;;;;;;;5.26;76.22;101074.50;4858099;29;5446;-78
2022/11/20 03:31:57;;;;;;;;;;;;;;;5.22;76.54;101076.69;4853865;29;5265;-78
2022/11/20 03:34:23;;;;;;;;;;;;;;;5.22;76.67;101082.03;4857105;29;5507;-78
2022/11/20 03:36:50;;;;;;;;;;;;;;;5.32;76.30;101079.97;4848889;29;5282;-79
2022/11/20 03:39:16;;;;;;;;;;;;;;;5.27;76.54;101079.69;4856171;29;5413;-79
2022/11/20 03:41:43;;;;;;;;;;;;;;;5.26;76.55;101075.34;4854041;29;5212;-78
2022/11/20 03:44:10;;;;;;;;;;;;;;;5.20;76.60;101074.19;4854087;29;5209;-78
2022/11/20 03:46:36;;;;;;;;;;;;;;;5.23;76.66;101073.88;4855724;29;5337;-79
2022/11/20 03:49:03;;;;;;;;;;;;;;;5.20;76.77;101073.34;4856514;29;5170;-78
2022/11/20 03:51:29;;;;;;;;;;;;;;;5.16;76.86;101069.38;4841357;29;5225;-79
2022/11/20 03:53:56;;;;;;;;;;;;;;;5.23;76.71;101070.34;4840423;29;5747;-79
2022/11/20 03:56:22;;;;;;;;;;;;;;;5.35;76.21;101063.59;4856735;29;5296;-79
2022/11/20 03:58:49;;;;;;;;;;;;;;;5.23;76.45;101054.31;4852656;29;5290;-79
2022/11/20 04:01:16;;;;;;;;;;;;;;;5.21;76.67;101056.34;4854393;29;5303;-78
2022/11/20 04:03:42;;;;;;;;;;;;;;;5.21;76.74;101053.66;4850434;29;5277;-79
2022/11/20 04:06:09;;;;;;;;;;;;;;;5.20;76.71;101050.16;4835505;29;5507;-78
2022/11/20 04:08:35;;;;;;;;;;;;;;;5.17;76.82;101050.50;4855707;29;5178;-79
2022/11/20 04:11:02;;;;;;;;;;;;;;;5.23;76.55;101056.97;4855004;29;5254;-79
2022/11/20 04:13:54;;;;;;;;;;;;;;;5.21;76.64;101051.00;4856069;29;5804;-79
2022/11/20 04:16:45;;;;;;;;;;;;;;;5.19;76.73;101032.47;4854529;29;5210;-78
2022/11/20 04:19:37;;;;;;;;;;;;;;;5.18;76.75;101044.16;4856161;29;5282;-78
2022/11/20 04:22:28;;;;;;;;;;;;;;;5.16;76.86;101034.66;4856254;29;5301;-77
2022/11/20 04:25:19;;;;;;;;;;;;;;;5.16;76.86;101038.16;4857094;29;5328;-79
2022/11/20 04:28:10;;;;;;;;;;;;;;;5.15;76.89;101031.16;4853506;29;5264;-79
2022/11/20 04:31:01;;;;;;;;;;;;;;;5.19;76.75;101031.63;4851924;29;5518;-78
2022/11/20 04:33:53;;;;;;;;;;;;;;;5.28;76.43;101032.44;4854712;29;5614;-78
2022/11/20 04:36:45;;;;;;;;;;;;;;;5.19;76.57;101027.13;4854620;29;5242;-78
2022/11/20 04:39:37;;;;;;;;;;;;;;;5.21;76.70;101026.97;4854656;29;5247;-78
2022/11/20 04:42:31;;;;;;;;;;;;;;;5.21;76.52;101022.44;4853275;29;5328;-78
2022/11/20 04:45:22;;;;;;;;;;;;;;;5.22;76.46;101029.44;4851620;29;5243;-78
2022/11/20 04:48:14;;;;;;;;;;;;;;;5.27;76.30;101022.78;4856106;29;5160;-79
2022/11/20 04:51:06;;;;;;;;;;;;;;;5.25;76.29;101030.94;4853940;29;5248;-78
2022/11/20 04:53:58;;;;;;;;;;;;;;;5.35;76.00;101025.38;4854276;29;5238;-78
2022/11/20 04:56:50;;;;;;;;;;;;;;;5.24;76.58;101026.63;4857024;29;5372;-79
2022/11/20 04:59:41;;;;;;;;;;;;;;;5.33;76.02;101022.91;4853883;29;5268;-79
2022/11/20 05:02:33;;;;;;;;;;;;;;;5.31;76.00;101014.22;4859170;29;5183;-78
2022/11/20 05:05:24;;;;;;;;;;;;;;;5.24;76.39;101013.25;4855695;29;5311;-77
2022/11/20 05:08:15;;;;;;;;;;;;;;;5.25;76.22;101020.25;4853684;29;5241;-78
2022/11/20 05:11:07;;;;;;;;;;;;;;;5.31;76.08;101016.91;4858571;29;5259;-78
2022/11/20 05:13:59;;;;;;;;;;;;;;;5.29;76.19;101010.06;4849052;29;5306;-78
2022/11/20 05:16:50;;;;;;;;;;;;;;;5.22;76.47;101005.41;4855324;29;5997;-79
2022/11/20 05:19:42;;;;;;;;;;;;;;;5.24;76.37;100995.41;4855829;29;5406;-80
2022/11/20 05:22:34;;;;;;;;;;;;;;;5.28;76.00;100993.19;4854895;29;5392;-78
2022/11/20 05:25:26;;;;;;;;;;;;;;;5.27;76.26;100990.72;4854846;29;5237;-78
2022/11/20 05:28:18;;;;;;;;;;;;;;;5.28;76.39;100985.19;4856858;29;5237;-78
2022/11/20 05:31:13;;;;;;;;;;;;;;;5.27;76.51;100980.03;4852142;29;5144;-78
2022/11/20 05:34:04;;;;;;;;;;;;;;;5.31;76.36;100976.81;4852775;29;5730;-80
2022/11/20 05:36:55;;;;;;;;;;;;;;;5.35;75.82;100970.13;4855894;29;5434;-78
2022/11/20 05:39:47;;;;;;;;;;;;;;;5.28;76.06;100966.50;4860684;29;5595;-79
2022/11/20 05:42:38;;;;;;;;;;;;;;;5.28;76.01;100971.84;4860776;29;5234;-79
2022/11/20 05:45:29;;;;;;;;;;;;;;;5.36;75.94;100973.66;4857366;29;5236;-79
2022/11/20 05:48:21;;;;;;;;;;;;;;;5.31;75.94;100963.47;4861797;29;5726;-79
2022/11/20 05:51:13;;;;;;;;;;;;;;;5.41;76.00;100958.75;4856814;29;5251;-77
2022/11/20 05:54:04;;;;;;;;;;;;;;;5.29;76.36;100965.47;4856327;29;5214;-80
2022/11/20 05:56:55;;;;;;;;;;;;;;;5.23;76.52;100959.03;4857918;29;5640;-78
2022/11/20 05:59:46;;;;;;;;;;;;;;;5.31;76.24;100947.44;4856316;29;5359;-79
2022/11/20 06:02:39;;;;;;;;;;;;;;;5.24;76.43;100954.50;4857672;29;5665;-78
2022/11/20 06:05:30;;;;;;;;;;;;;;;5.23;76.46;100953.69;4857610;29;5323;-77
2022/11/20 06:08:21;;;;;;;;;;;;;;;5.32;76.06;100945.59;4857766;29;5313;-79
2022/11/20 06:11:13;;;;;;;;;;;;;;;5.28;76.45;100946.97;4856782;29;5221;-78
2022/11/20 06:14:06;;;;;;;;;;;;;;;4.88;75.86;100877.59;4859145;29;5344;-80
2022/11/20 06:16:57;;;;;;;;;;;;;;;5.30;76.28;100940.47;4859325;29;5230;-77
2022/11/20 06:19:49;;;;;;;;;;;;;;;5.26;76.32;100940.97;4858350;29;5216;-79
2022/11/20 06:22:42;;;;;;;;;;;;;;;5.26;76.33;100947.13;4859668;29;5286;-79
2022/11/20 06:25:33;;;;;;;;;;;;;;;5.32;76.16;100940.25;4857671;29;5203;-79
2022/11/20 06:28:25;;;;;;;;;;;;;;;5.39;75.82;100925.22;4858185;29;5497;-78
2022/11/20 06:31:17;;;;;;;;;;;;;;;5.26;76.36;100931.13;4859144;29;5360;-78
2022/11/20 06:34:08;;;;;;;;;;;;;;;5.24;76.64;100927.81;4859665;29;5248;-80
2022/11/20 06:37:00;;;;;;;;;;;;;;;5.21;76.73;100923.66;4860258;29;5696;-76
2022/11/20 06:39:51;;;;;;;;;;;;;;;5.19;76.60;100919.47;4857198;29;5638;-78
2022/11/20 06:42:43;;;;;;;;;;;;;;;5.20;76.76;100921.97;4860370;29;5240;-78
2022/11/20 06:45:34;;;;;;;;;;;;;;;5.19;76.57;100917.63;4856477;29;5226;-79
2022/11/20 06:48:25;;;;;;;;;;;;;;;5.19;76.68;100914.13;4858413;29;5239;-79
2022/11/20 06:51:16;;;;;;;;;;;;;;;5.18;76.66;100910.66;4856267;29;5229;-77
2022/11/20 06:54:07;;;;;;;;;;;;;;;5.17;76.74;100916.97;4857664;29;5840;-78
2022/11/20 06:56:58;;;;;;;;;;;;;;;5.19;76.71;100922.97;4859168;29;5284;-78
2022/11/20 06:59:49;;;;;;;;;;;;;;;5.17;76.51;100916.97;4857711;29;5514;-79
2022/11/20 07:02:41;;;;;;;;;;;;;;;5.19;76.72;100912.28;4857522;29;5270;-79
2022/11/20 07:05:33;;;;;;;;;;;;;;;5.17;76.64;100905.47;4859328;29;5357;-77
2022/11/20 07:08:24;;;;;;;;;;;;;;;5.18;76.57;100905.31;4859815;29;5325;-78
2022/11/20 07:11:16;;;;;;;;;;;;;;;5.15;76.68;100911.00;4861236;29;5286;-78
2022/11/20 07:14:07;;;;;;;;;;;;;;;5.15;76.79;100913.66;4856752;29;5411;-78
2022/11/20 07:16:59;;;;;;;;;;;;;;;5.13;76.70;100912.19;4857126;29;5276;-78
2022/11/20 07:19:26;;;;;;;;;;;;;;;5.14;77.00;100924.50;4857174;29;5264;-78
2022/11/20 07:22:05;;;;;;;;;;;;;;;5.11;76.88;100916.84;4842307;29;5817;-78
2022/11/20 07:24:57;;;;;;;;;;;;;;;5.11;77.05;100916.84;4857578;29;5194;-77
2022/11/20 07:27:48;;;;;;;;;;;;;;;5.15;76.78;100915.50;4859130;29;5227;-79
2022/11/20 07:30:39;;;;;;;;;;;;;;;5.15;76.68;100918.19;4852442;29;5303;-78
2022/11/20 07:33:31;;;;;;;;;;;;;;;5.15;76.73;100912.84;4857222;29;5210;-77
2022/11/20 07:36:23;;;;;;;;;;;;;;;5.15;76.67;100915.50;4853983;29;5971;-78
2022/11/20 07:39:14;;;;;;;;;;;;;;;5.22;76.33;100914.63;4847462;29;5589;-78
2022/11/20 07:42:05;;;;;;;;;;;;;;;5.22;76.33;100911.94;4842641;29;5291;-78
2022/11/20 07:44:56;;;;;;;;;;;;;;;5.20;76.55;100902.44;4841608;29;5319;-78
2022/11/20 07:47:47;;;;;;;;;;;;;;;5.17;76.52;100900.13;4845091;29;5365;-78
2022/11/20 07:50:39;;;;;;;;;;;;;;;5.18;76.79;100904.47;4837262;29;5348;-79
2022/11/20 07:53:30;;;;;;;;;;;;;;;5.14;76.73;100889.78;4840850;29;5338;-79
2022/11/20 07:56:22;;;;;;;;;;;;;;;5.13;76.67;100886.31;4839838;29;5334;-78
2022/11/20 07:59:13;;;;;;;;;;;;;;;5.17;76.70;100889.44;4838006;29;5224;-77
2022/11/20 08:02:06;;;;;;;;;;;;;;;5.16;76.74;100877.09;4838997;29;5412;-79
2022/11/20 08:04:58;;;;;;;;;;;;;;;5.21;76.43;100878.25;4838173;29;5298;-79
2022/11/20 08:07:50;;;;;;;;;;;;;;;5.14;76.79;100873.78;4840572;29;5948;-79
2022/11/20 08:10:42;;;;;;;;;;;;;;;5.19;76.48;100874.91;4838918;29;5613;-78
2022/11/20 08:16:43;;;;;;;;;;;;;;;5.16;76.52;100861.91;4838372;29;5377;-78
2022/11/20 08:19:34;;;;;;;;;;;;;;;5.15;76.75;100862.09;4841919;29;5274;-79
2022/11/20 08:22:26;;;;;;;;;;;;;;;5.10;76.94;100856.47;4840667;29;5649;-78
2022/11/20 08:25:18;;;;;;;;;;;;;;;5.16;76.59;100850.41;4837771;29;5659;-78
2022/11/20 08:28:10;;;;;;;;;;;;;;;5.15;76.73;100852.25;4838607;29;5749;-80
2022/11/20 08:31:03;;;;;;;;;;;;;;;5.14;76.65;100853.25;4838235;29;5281;-77
2022/11/20 08:33:54;;;;;;;;;;;;;;;5.13;76.65;100840.91;4837652;29;5490;-78
2022/11/20 08:36:47;;;;;;;;;;;;;;;5.15;76.68;100838.91;4839291;29;5209;-79
2022/11/20 08:39:39;;;;;;;;;;;;;;;5.13;76.59;100840.91;4842775;29;5410;-79
2022/11/20 08:42:31;;;;;;;;;;;;;;;5.11;76.89;100842.09;4839181;29;5209;-78
2022/11/20 08:45:22;;;;;;;;;;;;;;;5.09;76.87;100847.63;4834754;29;5806;-79
2022/11/20 08:48:15;;;;;;;;;;;;;;;5.08;76.83;100845.94;4839982;29;5866;-78
2022/11/20 08:51:07;;;;;;;;;;;;;;;5.07;77.04;100838.94;4837702;29;5435;-78
2022/11/20 08:53:58;;;;;;;;;;;;;;;5.06;76.68;100842.63;4845039;29;5143;-80
2022/11/20 08:56:50;;;;;;;;;;;;;;;5.06;76.78;100845.31;4839669;29;5394;-78
2022/11/20 08:59:42;;;;;;;;;;;;;;;5.05;76.88;100840.13;4841488;29;5115;-80
2022/11/20 09:02:33;;;;;;;;;;;;;;;5.04;76.96;100841.16;4838113;29;5349;-78
2022/11/20 09:05:26;;;;;;;;;;;;;;;5.05;76.80;100835.63;4838757;29;5284;-78
2022/11/20 09:08:18;;;;;;;;;;;;;;;5.09;76.89;100830.75;4842911;29;5317;-78
2022/11/20 09:11:10;;;;;;;;;;;;;;;5.10;76.52;100835.09;4851300;29;5383;-77
2022/11/20 09:14:02;;;;;;;;;;;;;;;5.05;76.94;100824.94;4841923;29;5282;-78
2022/11/20 09:16:54;;;;;;;;;;;;;;;5.07;76.70;100830.94;4846960;29;5360;-78
2022/11/20 09:19:45;;;;;;;;;;;;;;;5.05;76.77;100830.28;4845381;29;5840;-78
2022/11/20 09:22:37;;;;;;;;;;;;;;;5.04;76.83;100831.28;4845619;29;5442;-77
2022/11/20 09:25:29;;;;;;;;;;;;;;;5.04;76.79;100825.94;4844164;29;5376;-77
2022/11/20 09:28:20;;;;;;;;;;;;;;;5.03;76.86;100826.97;4840034;29;5479;-78
2022/11/20 09:31:11;;;;;;;;;;;;;;;5.00;76.93;100819.31;4841156;29;5626;-79
2022/11/20 09:34:03;;;;;;;;;;;;;;;5.02;76.82;100809.28;4842257;29;5206;-79
2022/11/20 09:36:56;;;;;;;;;;;;;;;5.05;76.88;100802.75;4840931;29;5341;-80
2022/11/20 09:39:47;;;;;;;;;;;;;;;5.03;76.69;100826.13;4845940;29;5462;-79
2022/11/20 09:42:39;;;;;;;;;;;;;;;5.03;76.88;100820.78;4841443;29;5262;-77
2022/11/20 09:45:30;;;;;;;;;;;;;;;5.03;76.78;100818.97;4841549;29;5258;-79
2022/11/20 09:48:21;;;;;;;;;;;;;;;5.03;77.01;100820.78;4846523;29;5220;-79
2022/11/20 09:51:14;;;;;;;;;;;;;;;5.00;76.93;100803.31;4851290;29;5634;-78
2022/11/20 09:54:06;;;;;;;;;;;;;;;5.00;76.86;100806.78;4855228;29;5207;-79
2022/11/20 09:56:57;;;;;;;;;;;;;;;5.02;76.94;100803.94;4840785;29;5499;-79
2022/11/20 09:59:50;;;;;;;;;;;;;;;5.00;76.83;100795.28;4854827;29;5522;-79
2022/11/20 10:02:41;;;;;;;;;;;;;;;5.01;76.85;100795.09;4857674;29;5663;-78
2022/11/20 10:05:33;;;;;;;;;;;;;;;5.01;76.79;100789.75;4859318;29;5293;-78
2022/11/20 10:08:25;;;;;;;;;;;;;;;5.02;76.88;100782.56;4854940;29;5928;-79
2022/11/20 10:11:16;;;;;;;;;;;;;;;5.07;76.81;100782.06;4849665;29;5353;-77
2022/11/20 10:14:09;;;;;;;;;;;;;;;5.03;76.80;100778.06;4845750;29;5356;-79
2022/11/20 10:17:00;;;;;;;;;;;;;;;4.99;76.94;100778.41;4856475;29;5452;-79
2022/11/20 10:19:52;;;;;;;;;;;;;;;5.01;76.87;100763.06;4846593;29;5408;-79
2022/11/20 10:22:45;;;;;;;;;;;;;;;5.01;76.92;100754.22;4858310;29;5472;-78
2022/11/20 10:25:36;;;;;;;;;;;;;;;4.99;76.79;100749.06;4859779;29;5493;-77
2022/11/20 10:28:29;;;;;;;;;;;;;;;4.99;76.89;100743.72;4859898;29;5337;-78
2022/11/20 10:31:21;;;;;;;;;;;;;;;4.98;76.90;100743.91;4861433;29;5492;-77
2022/11/20 10:34:12;;;;;;;;;;;;;;;5.00;76.96;100731.22;4860606;29;5303;-78
2022/11/20 10:37:04;;;;;;;;;;;;;;;4.97;76.97;100729.75;4858316;29;5469;-77
2022/11/20 10:39:55;;;;;;;;;;;;;;;5.02;76.80;100737.19;4855812;29;5375;-79
2022/11/20 10:42:47;;;;;;;;;;;;;;;5.05;76.55;100730.66;4846029;29;5587;-77
2022/11/20 10:45:39;;;;;;;;;;;;;;;5.01;76.89;100724.88;4845474;29;5311;-78
2022/11/20 10:48:31;;;;;;;;;;;;;;;5.00;76.80;100724.03;4845260;29;5409;-78
2022/11/20 10:51:23;;;;;;;;;;;;;;;5.00;76.86;100715.22;4851350;29;5388;-77
2022/11/20 10:54:15;;;;;;;;;;;;;;;5.02;76.96;100707.81;4851036;29;5911;-78
2022/11/20 10:57:07;;;;;;;;;;;;;;;5.00;76.82;100702.69;4846905;29;5626;-79
2022/11/20 10:59:58;;;;;;;;;;;;;;;4.99;76.88;100705.53;4850954;29;5591;-78
2022/11/20 11:02:51;;;;;;;;;;;;;;;4.98;76.87;100699.34;4855196;29;5434;-79
2022/11/20 11:05:42;;;;;;;;;;;;;;;4.97;77.03;100688.84;4850923;29;5503;-77
2022/11/20 11:08:34;;;;;;;;;;;;;;;4.98;77.01;100693.19;4851787;29;5470;-78
2022/11/20 11:11:26;;;;;;;;;;;;;;;4.98;77.00;100699.34;4851472;29;5480;-78
2022/11/20 11:14:18;;;;;;;;;;;;;;;4.99;76.91;100693.00;4849655;29;5593;-78
2022/11/20 11:17:09;;;;;;;;;;;;;;;5.01;76.88;100682.16;4853413;29;5555;-79
2022/11/20 11:20:01;;;;;;;;;;;;;;;5.00;76.95;100684.00;4850442;29;6089;-79
2022/11/20 11:22:52;;;;;;;;;;;;;;;4.95;77.04;100670.34;4850673;29;5421;-78
2022/11/20 11:25:45;;;;;;;;;;;;;;;4.99;76.77;100666.31;4845732;29;5519;-79
2022/11/20 11:28:37;;;;;;;;;;;;;;;4.98;76.83;100670.00;4847725;29;5911;-78
2022/11/20 11:31:29;;;;;;;;;;;;;;;4.98;76.79;100661.16;4849358;29;5412;-80
2022/11/20 11:34:21;;;;;;;;;;;;;;;5.00;76.73;100659.97;4851778;29;5453;-78
2022/11/20 11:37:13;;;;;;;;;;;;;;;4.99;76.91;100657.47;4850676;29;5523;-78
2022/11/20 11:40:05;;;;;;;;;;;;;;;5.00;76.44;100654.63;4848928;29;5547;-78
2022/11/20 11:42:57;;;;;;;;;;;;;;;4.94;76.95;100652.69;4856340;29;5543;-79
2022/11/20 11:45:48;;;;;;;;;;;;;;;4.98;76.85;100648.63;4852263;29;5496;-79
2022/11/20 11:48:40;;;;;;;;;;;;;;;4.97;76.76;100649.66;4852032;29;5476;-79
2022/11/20 11:51:32;;;;;;;;;;;;;;;4.97;76.99;100646.13;4850554;29;5552;-77
2022/11/20 11:54:24;;;;;;;;;;;;;;;4.96;76.94;100636.47;4851034;29;5426;-78
2022/11/20 11:57:15;;;;;;;;;;;;;;;4.97;76.78;100636.31;4856078;29;5515;-80
2022/11/20 12:00:08;;;;;;;;;;;;;;;4.97;76.86;100633.63;4852104;29;5623;-77
2022/11/20 12:03:02;;;;;;;;;;;;;;;4.96;76.75;100626.63;4854533;29;5563;-78
2022/11/20 12:05:54;;;;;;;;;;;;;;;4.94;76.96;100628.66;4853260;29;5561;-78
2022/11/20 12:08:46;;;;;;;;;;;;;;;4.91;76.98;100629.03;4857811;29;5566;-79
2022/11/20 12:11:37;;;;;;;;;;;;;;;4.92;77.00;100622.66;4852398;29;5457;-78
2022/11/20 12:14:28;;;;;;;;;;;;;;;4.95;76.74;100614.28;4850893;29;5484;-77
2022/11/20 12:16:57;;;;;;;;;;;;;;;4.93;76.92;100608.31;4848882;29;5406;-77
2022/11/20 12:19:23;;;;;;;;;;;;;;;4.93;76.88;100594.97;4849331;29;5565;-78
2022/11/20 12:22:14;;;;;;;;;;;;;;;4.91;77.19;100598.81;4856086;29;5316;-79
2022/11/20 12:25:06;;;;;;;;;;;;;;;4.92;77.16;100595.97;4850893;29;5883;-79
2022/11/20 12:27:58;;;;;;;;;;;;;;;4.94;77.07;100601.13;4852478;29;5388;-78
2022/11/20 12:30:50;;;;;;;;;;;;;;;4.95;77.05;100598.28;4851282;29;5652;-77
2022/11/20 12:33:42;;;;;;;;;;;;;;;4.93;76.98;100602.97;4847607;29;5399;-80
2022/11/20 12:36:34;;;;;;;;;;;;;;;4.93;76.97;100592.28;4849942;29;5259;-80
2022/11/20 12:39:26;;;;;;;;;;;;;;;4.93;76.89;100600.28;4851368;29;5411;-80
2022/11/20 12:45:27;;;;;;;;;;;;;;;4.94;76.77;100601.13;4846678;29;5430;-78
2022/11/20 12:48:18;;;;;;;;;;;;;;;4.94;76.95;100599.31;4853572;29;5246;-78
2022/11/20 12:51:09;;;;;;;;;;;;;;;4.95;76.80;100606.28;4852700;29;5420;-78
2022/11/20 12:54:02;;;;;;;;;;;;;;;4.92;77.10;100589.81;4846164;29;7118;-78
2022/11/20 12:56:54;;;;;;;;;;;;;;;4.95;76.87;100598.28;4852768;29;5500;-78
2022/11/20 12:59:46;;;;;;;;;;;;;;;4.95;76.75;100590.28;4852299;29;5906;-77
2022/11/20 13:02:37;;;;;;;;;;;;;;;4.94;77.03;100585.97;4851622;29;5627;-80
2022/11/20 13:05:30;;;;;;;;;;;;;;;4.92;77.18;100584.47;4851810;29;5504;-80
2022/11/20 13:08:21;;;;;;;;;;;;;;;4.92;77.03;100574.63;4853493;29;5729;-81
2022/11/20 13:11:16;;;;;;;;;;;;;;;4.92;77.17;100571.97;4854132;29;5275;-80
2022/11/20 13:14:07;;;;;;;;;;;;;;;4.93;77.01;100575.44;4850987;29;5309;-79
2022/11/20 13:17:02;;;;;;;;;;;;;;;4.93;76.99;100562.94;4853121;29;5148;-80
2022/11/20 13:19:54;;;;;;;;;;;;;;;4.91;76.94;100564.13;4853736;29;5253;-79
2022/11/20 13:22:48;;;;;;;;;;;;;;;4.91;77.19;100556.97;4855892;29;5291;-79
2022/11/20 13:25:39;;;;;;;;;;;;;;;4.89;77.07;100558.97;4854673;29;5740;-78
2022/11/20 13:28:31;;;;;;;;;;;;;;;4.92;77.18;100549.78;4851480;29;5316;-81
2022/11/20 13:31:22;;;;;;;;;;;;;;;4.91;77.00;100551.63;4856706;29;4916;-79
2022/11/20 13:34:14;;;;;;;;;;;;;;;4.90;77.11;100543.78;4862303;29;5198;-78
2022/11/20 13:37:06;;;;;;;;;;;;;;;4.90;77.03;100546.47;4855580;29;5041;-79
2022/11/20 13:39:58;;;;;;;;;;;;;;;4.93;77.00;100549.59;4862667;29;5235;-80
2022/11/20 13:42:50;;;;;;;;;;;;;;;4.95;76.96;100541.41;4863061;29;5192;-79
2022/11/20 13:45:42;;;;;;;;;;;;;;;4.96;76.81;100527.03;4862027;29;5927;-78
2022/11/20 13:48:34;;;;;;;;;;;;;;;4.95;76.72;100525.41;4865582;29;5173;-80
2022/11/20 13:51:20;;;;;;;;;;;;;;;4.91;76.78;100522.28;4858358;29;5187;-79
2022/11/20 13:53:50;;;;;;;;;;;;;;;4.92;77.06;100531.91;4851544;29;4455;-80
2022/11/20 13:56:19;;;;;;;;;;;;;;;4.93;76.87;100524.75;4840341;29;5189;-80
2022/11/20 13:58:47;;;;;;;;;;;;;;;4.95;76.79;100522.72;4860494;29;5295;-81
2022/11/20 14:01:14;;;;;;;;;;;;;;;4.94;76.88;100521.03;4858347;29;5237;-80
2022/11/20 14:03:40;;;;;;;;;;;;;;;4.90;77.09;100523.25;4869712;29;4952;-79
2022/11/20 14:06:07;;;;;;;;;;;;;;;4.90;77.16;100511.75;4867499;29;5430;-80
2022/11/20 14:08:33;;;;;;;;;;;;;;;4.90;77.02;100499.25;4848226;29;5398;-81
2022/11/20 14:11:00;;;;;;;;;;;;;;;4.93;77.00;100508.72;4860324;29;5173;-79
2022/11/20 14:13:26;;;;;;;;;;;;;;;4.90;76.88;100495.75;4860320;29;5552;-79
2022/11/20 14:15:53;;;;;;;;;;;;;;;4.93;76.77;100495.38;4859306;29;5358;-79
2022/11/20 14:18:19;;;;;;;;;;;;;;;4.92;77.06;100494.56;4857740;29;6113;-78
2022/11/20 14:21:11;;;;;;;;;;;;;;;4.95;76.88;100490.69;4865305;29;5293;-78
2022/11/20 14:23:38;;;;;;;;;;;;;;;4.91;76.97;100486.72;4860172;29;5621;-79
2022/11/20 14:26:05;;;;;;;;;;;;;;;4.90;77.01;100491.22;4854137;29;5300;-80